createdAt,value
2022-10-05T00:00:52.730Z,54595.97
2022-10-05T00:03:22.594Z,54595.97
2022-10-05T00:05:49.944Z,54595.97
2022-10-05T00:08:24.140Z,54852.38
2022-10-05T00:10:52.111Z,54852.38
2022-10-05T00:13:26.841Z,55108.78
2022-10-05T00:16:14.686Z,55365.22
2022-10-05T00:18:47.540Z,55365.22
2022-10-05T00:21:27.314Z,55108.78
2022-10-05T00:23:58.115Z,55878.13
2022-10-05T00:26:27.828Z,55621.66
2022-10-05T00:28:56.207Z,55365.22
2022-10-05T00:31:29.396Z,55108.78
2022-10-05T00:33:58.083Z,55365.22
2022-10-05T00:36:26.299Z,55365.22
2022-10-05T00:38:57.512Z,55365.22
2022-10-05T00:41:30.383Z,55365.22
2022-10-05T00:44:25.614Z,55108.78
2022-10-05T00:47:20.074Z,54852.38
2022-10-05T00:50:25.412Z,55108.78
2022-10-05T00:53:20.415Z,55365.22
2022-10-05T00:56:07.461Z,55108.78
2022-10-05T00:58:57.375Z,55365.22
2022-10-05T01:01:40.942Z,55365.22
2022-10-05T01:04:44.052Z,55365.22
2022-10-05T01:07:49.253Z,55108.78
2022-10-05T01:10:35.321Z,55365.22
2022-10-05T01:13:27.893Z,55108.78
2022-10-05T01:16:04.349Z,55365.22
2022-10-05T01:18:48.973Z,54852.38
2022-10-05T01:21:28.313Z,55108.78
2022-10-05T01:24:09.337Z,55365.22
2022-10-05T01:26:43.575Z,55365.22
2022-10-05T01:29:20.318Z,55365.22
2022-10-05T01:31:50.630Z,55108.78
2022-10-05T01:34:45.584Z,54852.38
2022-10-05T01:37:33.646Z,54595.97
2022-10-05T01:40:44.271Z,54595.97
2022-10-05T01:43:17.624Z,55365.22
2022-10-05T01:45:51.055Z,54852.38
2022-10-05T01:48:59.983Z,54339.59
2022-10-05T01:51:46.124Z,54595.97
2022-10-05T01:54:20.534Z,54595.97
2022-10-05T01:56:50.945Z,54339.59
2022-10-05T01:59:49.679Z,54852.38
2022-10-05T02:02:21.121Z,54339.59
2022-10-05T02:05:01.942Z,53058.03
2022-10-05T02:08:05.208Z,52997.97
2022-10-05T02:10:42.301Z,53314.31
2022-10-05T02:13:15.619Z,53314.31
2022-10-05T02:15:48.107Z,53570.59
2022-10-05T02:18:23.847Z,54083.25
2022-10-05T02:20:55.485Z,53030.00
2022-10-05T02:23:31.184Z,52801.78
2022-10-05T02:25:58.937Z,52801.78
2022-10-05T02:28:51.556Z,52545.53
2022-10-05T02:31:38.630Z,52545.53
2022-10-05T02:34:31.434Z,52517.50
2022-10-05T02:37:25.206Z,52781.75
2022-10-05T02:39:59.114Z,52953.94
2022-10-05T02:42:47.704Z,52085.16
2022-10-05T02:45:15.193Z,51832.97
2022-10-05T02:48:12.890Z,50352.31
2022-10-05T02:50:48.617Z,50048.25
2022-10-05T02:53:16.081Z,50306.28
2022-10-05T02:56:03.051Z,50300.28
2022-10-05T02:59:02.523Z,49464.22
2022-10-05T03:01:47.858Z,47558.78
2022-10-05T03:04:31.035Z,45526.59
2022-10-05T03:07:04.668Z,45670.44
2022-10-05T03:09:44.302Z,45294.88
2022-10-05T03:12:22.724Z,45436.72
2022-10-05T03:15:26.117Z,45121.09
2022-10-05T03:18:20.143Z,45320.84
2022-10-05T03:21:09.586Z,45768.31
2022-10-05T03:24:28.564Z,45298.88
2022-10-05T03:27:12.125Z,45730.38
2022-10-05T03:29:44.184Z,45674.44
2022-10-05T03:32:39.597Z,45990.09
2022-10-05T03:35:14.574Z,42455.66
2022-10-05T03:38:05.456Z,41206.53
2022-10-05T03:40:50.609Z,41659.44
2022-10-05T03:43:54.363Z,41435.97
2022-10-05T03:46:43.537Z,42313.97
2022-10-05T03:49:23.474Z,43236.09
2022-10-05T03:52:06.923Z,43801.09
2022-10-05T03:54:46.928Z,44392.16
2022-10-05T03:57:22.540Z,45598.50
2022-10-05T04:00:05.501Z,45470.66
2022-10-05T04:03:00.687Z,46089.97
2022-10-05T04:05:51.818Z,46377.69
2022-10-05T04:08:38.668Z,46827.31
2022-10-05T04:11:15.785Z,47592.78
2022-10-05T04:13:52.821Z,47752.69
2022-10-05T04:16:29.284Z,48078.53
2022-10-05T04:19:10.947Z,48910.28
2022-10-05T04:22:16.220Z,49520.22
2022-10-05T04:24:52.906Z,50830.44
2022-10-05T04:27:43.982Z,51090.56
2022-10-05T04:30:16.783Z,52161.22
2022-10-05T04:32:51.947Z,52545.53
2022-10-05T04:35:41.041Z,53314.31
2022-10-05T04:38:36.416Z,54595.97
2022-10-05T04:41:32.006Z,55621.66
2022-10-05T04:44:25.248Z,57417.38
2022-10-05T04:47:05.244Z,57417.38
2022-10-05T04:49:33.167Z,58187.25
2022-10-05T04:52:38.041Z,58700.59
2022-10-05T04:55:35.437Z,59470.75
2022-10-05T04:58:31.234Z,60497.91
2022-10-05T05:01:25.968Z,61011.59
2022-10-05T05:04:35.948Z,61268.47
2022-10-05T05:07:32.701Z,62553.16
2022-10-05T05:10:34.819Z,62553.16
2022-10-05T05:13:18.597Z,63067.16
2022-10-05T05:16:21.182Z,64352.53
2022-10-05T05:19:16.871Z,64609.66
2022-10-05T05:22:09.632Z,64352.53
2022-10-05T05:25:11.333Z,64866.81
2022-10-05T05:27:56.867Z,65895.59
2022-10-05T05:30:46.142Z,66667.38
2022-10-05T05:33:27.364Z,66924.69
2022-10-05T05:36:23.656Z,67439.34
2022-10-05T05:39:22.441Z,67696.72
2022-10-05T05:41:56.626Z,68211.50
2022-10-05T05:44:26.756Z,66924.69
2022-10-05T05:47:40.589Z,66410.09
2022-10-05T05:50:36.811Z,67696.72
2022-10-05T05:53:10.188Z,68726.38
2022-10-05T05:55:46.150Z,69241.31
2022-10-05T05:58:19.799Z,69241.31
2022-10-05T06:01:04.293Z,69241.31
2022-10-05T06:03:54.056Z,69241.31
2022-10-05T06:06:27.158Z,70013.84
2022-10-05T06:08:58.330Z,70528.97
2022-10-05T06:12:07.832Z,70786.59
2022-10-05T06:15:06.002Z,70786.59
2022-10-05T06:17:39.144Z,71301.84
2022-10-05T06:20:11.560Z,71044.19
2022-10-05T06:22:43.548Z,71559.47
2022-10-05T06:25:17.111Z,71044.19
2022-10-05T06:28:01.946Z,71817.16
2022-10-05T06:30:56.482Z,72332.56
2022-10-05T06:33:42.805Z,72848.03
2022-10-05T06:36:29.011Z,73621.41
2022-10-05T06:39:30.952Z,73105.81
2022-10-05T06:41:59.932Z,73363.59
2022-10-05T06:45:05.601Z,73879.22
2022-10-05T06:47:50.480Z,74137.09
2022-10-05T06:51:09.227Z,74137.09
2022-10-05T06:53:57.015Z,74394.94
2022-10-05T06:56:40.541Z,74652.84
2022-10-05T06:59:16.976Z,74652.84
2022-10-05T07:01:59.665Z,75168.66
2022-10-05T07:04:37.290Z,75426.59
2022-10-05T07:07:23.798Z,75684.56
2022-10-05T07:10:07.262Z,75426.59
2022-10-05T07:13:01.894Z,75168.66
2022-10-05T07:15:55.233Z,75168.66
2022-10-05T07:18:28.969Z,75426.59
2022-10-05T07:20:59.292Z,76200.56
2022-10-05T07:23:45.403Z,76200.56
2022-10-05T07:26:37.492Z,77232.75
2022-10-05T07:29:08.001Z,77748.97
2022-10-05T07:31:45.898Z,78007.13
2022-10-05T07:34:30.371Z,78523.44
2022-10-05T07:37:55.486Z,78781.66
2022-10-05T07:40:53.615Z,79298.09
2022-10-05T07:43:40.241Z,80072.94
2022-10-05T07:46:40.514Z,80072.94
2022-10-05T07:49:24.388Z,79814.63
2022-10-05T07:51:58.539Z,80072.94
2022-10-05T07:54:53.088Z,79814.63
2022-10-05T07:57:30.398Z,79556.34
2022-10-05T08:00:07.196Z,79814.63
2022-10-05T08:02:44.550Z,79814.63
2022-10-05T08:05:30.295Z,80072.94
2022-10-05T08:08:27.426Z,80589.56
2022-10-05T08:11:48.878Z,80589.56
2022-10-05T08:14:39.963Z,80847.91
2022-10-05T08:17:25.512Z,81364.69
2022-10-05T08:20:21.829Z,82139.97
2022-10-05T08:23:10.812Z,83173.97
2022-10-05T08:25:49.810Z,82915.44
2022-10-05T08:28:25.714Z,82398.44
2022-10-05T08:31:04.244Z,82398.44
2022-10-05T08:33:40.964Z,82139.97
2022-10-05T08:36:14.543Z,81623.09
2022-10-05T08:38:42.611Z,81364.69
2022-10-05T08:41:40.864Z,81623.09
2022-10-05T08:44:30.271Z,81881.53
2022-10-05T08:47:00.570Z,81881.53
2022-10-05T08:50:01.028Z,81364.69
2022-10-05T08:53:04.575Z,81881.53
2022-10-05T08:55:35.143Z,82398.44
2022-10-05T08:58:30.700Z,82139.97
2022-10-05T09:01:08.370Z,82656.94
2022-10-05T09:04:00.894Z,83949.66
2022-10-05T09:07:09.625Z,85501.56
2022-10-05T09:09:40.149Z,87313.03
2022-10-05T09:12:35.302Z,89384.41
2022-10-05T09:15:27.361Z,94049.59
2022-10-05T09:18:31.793Z,97682.41
2022-10-05T09:21:06.634Z,100279.59
2022-10-05T09:23:43.266Z,102098.78
2022-10-05T09:27:01.460Z,103138.75
2022-10-05T09:29:53.261Z,104179.03
2022-10-05T09:32:44.720Z,104699.28
2022-10-05T09:35:50.103Z,104699.28
2022-10-05T09:38:55.205Z,104959.44
2022-10-05T09:41:22.895Z,104959.44
2022-10-05T09:44:22.312Z,104959.44
2022-10-05T09:46:52.782Z,104959.44
2022-10-05T09:49:38.422Z,104959.44
2022-10-05T09:52:27.642Z,104699.28
2022-10-05T09:55:26.302Z,104179.03
2022-10-05T09:58:04.194Z,104439.13
2022-10-05T10:01:09.032Z,104439.13
2022-10-05T10:04:16.929Z,104179.03
2022-10-05T10:07:09.863Z,103918.91
2022-10-05T10:10:08.350Z,103138.75
2022-10-05T10:12:57.006Z,102618.72
2022-10-05T10:15:36.835Z,102618.72
2022-10-05T10:18:23.232Z,102358.75
2022-10-05T10:21:33.173Z,102358.75
2022-10-05T10:24:38.477Z,102098.78
2022-10-05T10:27:36.948Z,101838.84
2022-10-05T10:30:46.195Z,102098.78
2022-10-05T10:33:44.777Z,101838.84
2022-10-05T10:36:43.946Z,101838.84
2022-10-05T10:39:20.268Z,102098.78
2022-10-05T10:42:26.201Z,102098.78
2022-10-05T10:45:38.274Z,103138.75
2022-10-05T10:48:37.964Z,103398.78
2022-10-05T10:51:17.331Z,103918.91
2022-10-05T10:54:17.420Z,103658.84
2022-10-05T10:57:04.102Z,103658.84
2022-10-05T11:00:17.579Z,103138.75
2022-10-05T11:03:30.021Z,103138.75
2022-10-05T11:06:34.876Z,103398.78
2022-10-05T11:09:14.546Z,103398.78
2022-10-05T11:12:05.512Z,103398.78
2022-10-05T11:15:02.487Z,103658.84
2022-10-05T11:18:07.626Z,103918.91
2022-10-05T11:20:59.996Z,103918.91
2022-10-05T11:23:45.622Z,103658.84
2022-10-05T11:26:32.579Z,102878.72
2022-10-05T11:29:19.045Z,102358.75
2022-10-05T11:31:58.004Z,101838.84
2022-10-05T11:34:46.529Z,101578.91
2022-10-05T11:37:37.669Z,101838.84
2022-10-05T11:40:20.996Z,101838.84
2022-10-05T11:43:12.859Z,101838.84
2022-10-05T11:46:10.708Z,101838.84
2022-10-05T11:48:48.274Z,102098.78
2022-10-05T11:51:36.317Z,102358.75
2022-10-05T11:54:09.974Z,102618.72
2022-10-05T11:56:59.418Z,102358.75
2022-10-05T11:59:34.548Z,102618.72
2022-10-05T12:02:02.084Z,102618.72
2022-10-05T12:05:18.822Z,102618.72
2022-10-05T12:07:56.019Z,102618.72
2022-10-05T12:10:45.366Z,102878.72
2022-10-05T12:13:33.673Z,103138.75
2022-10-05T12:16:32.703Z,102878.72
2022-10-05T12:19:14.713Z,102878.72
2022-10-05T12:21:56.633Z,102878.72
2022-10-05T12:24:36.464Z,103138.75
2022-10-05T12:27:12.217Z,103398.78
2022-10-05T12:30:08.109Z,103398.78
2022-10-05T12:33:02.553Z,103398.78
2022-10-05T12:35:58.194Z,103658.84
2022-10-05T12:38:48.703Z,103658.84
2022-10-05T12:41:32.430Z,103658.84
2022-10-05T12:44:35.471Z,103918.91
2022-10-05T12:47:39.246Z,103658.84
2022-10-05T12:50:22.992Z,103658.84
2022-10-05T12:53:08.738Z,103658.84
2022-10-05T12:56:16.139Z,103398.78
2022-10-05T12:59:19.054Z,103398.78
2022-10-05T13:02:04.255Z,103398.78
2022-10-05T13:04:58.520Z,103138.75
2022-10-05T13:07:50.949Z,103398.78
2022-10-05T13:10:31.292Z,103398.78
2022-10-05T13:13:21.364Z,103658.84
2022-10-05T13:16:01.242Z,103398.78
2022-10-05T13:18:51.789Z,103398.78
2022-10-05T13:21:30.735Z,103398.78
2022-10-05T13:24:38.109Z,103138.75
2022-10-05T13:27:16.283Z,103138.75
2022-10-05T13:29:54.504Z,103398.78
2022-10-05T13:32:34.749Z,102878.72
2022-10-05T13:35:25.922Z,103138.75
2022-10-05T13:38:02.303Z,103138.75
2022-10-05T13:40:45.958Z,103138.75
2022-10-05T13:43:45.954Z,103138.75
2022-10-05T13:46:38.360Z,103138.75
2022-10-05T13:49:44.509Z,103398.78
2022-10-05T13:52:34.693Z,103398.78
2022-10-05T13:55:15.037Z,103398.78
2022-10-05T13:57:53.356Z,103398.78
2022-10-05T14:00:26.915Z,103138.75
2022-10-05T14:02:57.353Z,103138.75
2022-10-05T14:05:31.920Z,103398.78
2022-10-05T14:08:02.296Z,103398.78
2022-10-05T14:10:47.401Z,103398.78
2022-10-05T14:13:23.887Z,103658.84
2022-10-05T14:16:04.395Z,104699.28
2022-10-05T14:18:36.512Z,105219.59
2022-10-05T14:21:13.479Z,104959.44
2022-10-05T14:23:41.261Z,104699.28
2022-10-05T14:26:35.783Z,104439.13
2022-10-05T14:29:16.131Z,104179.03
2022-10-05T14:32:01.944Z,104179.03
2022-10-05T14:34:34.777Z,104439.13
2022-10-05T14:37:21.420Z,104179.03
2022-10-05T14:39:51.951Z,104179.03
2022-10-05T14:42:22.798Z,103918.91
2022-10-05T14:45:13.375Z,103918.91
2022-10-05T14:48:08.790Z,103918.91
2022-10-05T14:50:52.797Z,103918.91
2022-10-05T14:53:25.846Z,103918.91
2022-10-05T14:56:21.958Z,103658.84
2022-10-05T14:58:53.600Z,103918.91
2022-10-05T15:01:28.272Z,104179.03
2022-10-05T15:04:50.204Z,103918.91
2022-10-05T15:07:41.016Z,104179.03
2022-10-05T15:10:43.800Z,104179.03
2022-10-05T15:13:32.241Z,104179.03
2022-10-05T15:16:22.465Z,106781.06
2022-10-05T15:19:16.305Z,107822.44
2022-10-05T15:22:02.393Z,108343.22
2022-10-05T15:24:58.919Z,108864.09
2022-10-05T15:27:42.343Z,109124.56
2022-10-05T15:30:13.081Z,109124.56
2022-10-05T15:32:51.178Z,108864.09
2022-10-05T15:35:27.942Z,108082.81
2022-10-05T15:38:21.003Z,108082.81
2022-10-05T15:41:12.056Z,108603.66
2022-10-05T15:43:50.323Z,108864.09
2022-10-05T15:46:31.864Z,109124.56
2022-10-05T15:49:08.705Z,109385.06
2022-10-05T15:52:08.821Z,109385.06
2022-10-05T15:55:16.771Z,109385.06
2022-10-05T15:57:50.514Z,109124.56
2022-10-05T16:00:20.923Z,109124.56
2022-10-05T16:03:12.846Z,109385.06
2022-10-05T16:06:07.203Z,109645.56
2022-10-05T16:08:53.133Z,109645.56
2022-10-05T16:11:46.143Z,109645.56
2022-10-05T16:14:32.704Z,109645.56
2022-10-05T16:17:22.165Z,109645.56
2022-10-05T16:20:30.794Z,109124.56
2022-10-05T16:23:17.743Z,108603.66
2022-10-05T16:25:54.417Z,108082.81
2022-10-05T16:28:46.409Z,107822.44
2022-10-05T16:31:17.752Z,107562.06
2022-10-05T16:33:54.614Z,107301.72
2022-10-05T16:36:49.052Z,107041.38
2022-10-05T16:39:17.612Z,107041.38
2022-10-05T16:42:12.986Z,106781.06
2022-10-05T16:45:06.936Z,106781.06
2022-10-05T16:47:50.723Z,106520.78
2022-10-05T16:50:38.438Z,106260.50
2022-10-05T16:53:52.403Z,106000.25
2022-10-05T16:56:25.325Z,106260.50
2022-10-05T16:59:30.245Z,106000.25
2022-10-05T17:02:37.939Z,106260.50
2022-10-05T17:05:44.806Z,106260.50
2022-10-05T17:08:57.627Z,106520.78
2022-10-05T17:11:56.257Z,106000.25
2022-10-05T17:14:41.924Z,105740.00
2022-10-05T17:17:32.653Z,106000.25
2022-10-05T17:20:19.004Z,106000.25
2022-10-05T17:22:55.679Z,106260.50
2022-10-05T17:25:36.587Z,106260.50
2022-10-05T17:28:57.466Z,106260.50
2022-10-05T17:31:28.549Z,106520.78
2022-10-05T17:34:18.046Z,106260.50
2022-10-05T17:36:53.605Z,106260.50
2022-10-05T17:39:23.250Z,106260.50
2022-10-05T17:41:51.249Z,106260.50
2022-10-05T17:44:26.447Z,106260.50
2022-10-05T17:46:55.155Z,106000.25
2022-10-05T17:49:37.961Z,105740.00
2022-10-05T17:52:24.015Z,107822.44
2022-10-05T17:55:19.751Z,109124.56
2022-10-05T17:57:47.242Z,109124.56
2022-10-05T18:00:40.825Z,109124.56
2022-10-05T18:03:31.467Z,108864.09
2022-10-05T18:06:37.381Z,107822.44
2022-10-05T18:09:23.278Z,107301.72
2022-10-05T18:12:18.019Z,106781.06
2022-10-05T18:15:06.890Z,106260.50
2022-10-05T18:17:47.824Z,105740.00
2022-10-05T18:20:21.068Z,105479.81
2022-10-05T18:22:50.857Z,104959.44
2022-10-05T18:25:25.955Z,104699.28
2022-10-05T18:28:31.642Z,103918.91
2022-10-05T18:31:41.681Z,103138.75
2022-10-05T18:34:26.420Z,102878.72
2022-10-05T18:37:15.522Z,102618.72
2022-10-05T18:40:27.942Z,102358.75
2022-10-05T18:42:55.398Z,101838.84
2022-10-05T18:45:22.868Z,101319.00
2022-10-05T18:48:16.646Z,100799.25
2022-10-05T18:50:47.461Z,100539.41
2022-10-05T18:53:28.341Z,100279.59
2022-10-05T18:56:15.280Z,99500.22
2022-10-05T18:58:57.030Z,98980.75
2022-10-05T19:01:28.089Z,98721.03
2022-10-05T19:04:27.645Z,98201.69
2022-10-05T19:07:06.197Z,97422.78
2022-10-05T19:09:48.643Z,96384.53
2022-10-05T19:12:41.391Z,95087.13
2022-10-05T19:15:34.626Z,93790.25
2022-10-05T19:18:40.380Z,92493.81
2022-10-05T19:21:34.499Z,91975.41
2022-10-05T19:24:31.631Z,91197.91
2022-10-05T19:27:27.480Z,90679.66
2022-10-05T19:30:15.863Z,90161.50
2022-10-05T19:33:11.147Z,89125.41
2022-10-05T19:35:45.049Z,88866.44
2022-10-05T19:38:29.200Z,88089.66
2022-10-05T19:41:18.098Z,87313.03
2022-10-05T19:43:57.661Z,87054.19
2022-10-05T19:46:52.802Z,86019.03
2022-10-05T19:49:49.231Z,85760.28
2022-10-05T19:52:41.775Z,85242.88
2022-10-05T19:55:15.826Z,84984.19
2022-10-05T19:57:54.416Z,84725.53
2022-10-05T20:00:27.949Z,84725.53
2022-10-05T20:03:16.549Z,84208.25
2022-10-05T20:05:48.067Z,83949.66
2022-10-05T20:08:18.324Z,83432.50
2022-10-05T20:11:03.949Z,83173.97
2022-10-05T20:13:34.996Z,82656.94
2022-10-05T20:16:31.682Z,82139.97
2022-10-05T20:19:18.378Z,81881.53
2022-10-05T20:21:47.347Z,81364.69
2022-10-05T20:24:25.460Z,81106.28
2022-10-05T20:27:16.507Z,80589.56
2022-10-05T20:29:45.085Z,80331.25
2022-10-05T20:32:15.200Z,79814.63
2022-10-05T20:34:46.740Z,79556.34
2022-10-05T20:37:16.966Z,79556.34
2022-10-05T20:39:44.859Z,79298.09
2022-10-05T20:42:12.481Z,79298.09
2022-10-05T20:44:43.180Z,78781.66
2022-10-05T20:47:10.919Z,78265.28
2022-10-05T20:49:41.246Z,77748.97
2022-10-05T20:52:10.873Z,77490.88
2022-10-05T20:54:43.930Z,77490.88
2022-10-05T20:57:11.485Z,77490.88
2022-10-05T20:59:38.881Z,77490.88
2022-10-05T21:02:06.769Z,77232.75
2022-10-05T21:04:41.698Z,76974.69
2022-10-05T21:07:11.584Z,76458.59
2022-10-05T21:09:40.951Z,76458.59
2022-10-05T21:12:11.419Z,76200.56
2022-10-05T21:14:41.062Z,75942.56
2022-10-05T21:22:07.393Z,76200.56
2022-10-05T21:24:36.732Z,76200.56
2022-10-05T21:27:05.209Z,75684.56
2022-10-05T21:29:34.396Z,75426.59
2022-10-05T21:32:03.373Z,75426.59
2022-10-05T21:34:32.955Z,75168.66
2022-10-05T21:37:00.580Z,75168.66
2022-10-05T21:39:27.884Z,74652.84
2022-10-05T21:41:55.275Z,74394.94
2022-10-05T21:44:22.784Z,74137.09
2022-10-05T21:46:53.191Z,73879.22
2022-10-05T21:49:20.747Z,73621.41
2022-10-05T21:51:55.092Z,73105.81
2022-10-05T21:54:24.216Z,73105.81
2022-10-05T21:56:58.631Z,73105.81
2022-10-05T21:59:32.477Z,72590.28
2022-10-05T22:01:59.833Z,72590.28
2022-10-05T22:04:27.593Z,72074.84
2022-10-05T22:06:55.939Z,71817.16
2022-10-05T22:09:23.595Z,71559.47
2022-10-05T22:11:53.547Z,71301.84
2022-10-05T22:14:23.948Z,71301.84
2022-10-05T22:16:53.322Z,71044.19
2022-10-05T22:19:23.322Z,70528.97
2022-10-05T22:21:50.890Z,70786.59
2022-10-05T22:24:20.528Z,70786.59
2022-10-05T22:26:51.521Z,70786.59
2022-10-05T22:29:20.364Z,70786.59
2022-10-05T22:31:48.949Z,71044.19
2022-10-05T22:34:17.922Z,70786.59
2022-10-05T22:36:45.907Z,71044.19
2022-10-05T22:39:17.043Z,71044.19
2022-10-05T22:41:48.983Z,71044.19
2022-10-05T22:44:16.987Z,71301.84
2022-10-05T22:46:44.447Z,71301.84
2022-10-05T22:49:13.161Z,71044.19
2022-10-05T22:51:40.631Z,71044.19
2022-10-05T22:54:08.109Z,71301.84
2022-10-05T22:56:35.511Z,71559.47
2022-10-05T22:59:03.160Z,71301.84
2022-10-05T23:01:32.860Z,71301.84
2022-10-05T23:04:00.302Z,71817.16
2022-10-05T23:06:28.760Z,71301.84
2022-10-05T23:08:58.672Z,71044.19
2022-10-05T23:11:27.979Z,71044.19
2022-10-05T23:13:58.067Z,71559.47
2022-10-05T23:16:28.349Z,71559.47
2022-10-05T23:18:56.798Z,71817.16
2022-10-05T23:21:25.820Z,71817.16
2022-10-05T23:23:53.608Z,71559.47
2022-10-05T23:26:26.328Z,71559.47
2022-10-05T23:28:57.164Z,71559.47
2022-10-05T23:31:31.163Z,71559.47
2022-10-05T23:33:58.652Z,71559.47
2022-10-05T23:36:31.362Z,71559.47
2022-10-05T23:39:01.339Z,71559.47
2022-10-05T23:41:29.062Z,71559.47
2022-10-05T23:43:56.418Z,71559.47
2022-10-05T23:46:25.110Z,71559.47
2022-10-05T23:48:53.242Z,71301.84
2022-10-05T23:51:23.072Z,71301.84
2022-10-05T23:53:50.511Z,71044.19
2022-10-05T23:56:20.331Z,71044.19
2022-10-05T23:58:47.799Z,71817.16
